sensor_id;sensor_type;location;lat;lon;timestamp;temperature;humidity
36652;DHT22;53334;51.976;20.144;2023-02-01T00:02:14;25.30;50.80
36652;DHT22;53334;51.976;20.144;2023-02-01T00:04:48;25.30;50.80
36652;DHT22;53334;51.976;20.144;2023-02-01T00:07:23;25.30;50.80
36652;DHT22;53334;51.976;20.144;2023-02-01T00:09:56;25.30;50.70
36652;DHT22;53334;51.976;20.144;2023-02-01T00:12:29;25.40;50.70
36652;DHT22;53334;51.976;20.144;2023-02-01T00:15:03;25.30;50.70
36652;DHT22;53334;51.976;20.144;2023-02-01T00:17:37;25.30;50.60
36652;DHT22;53334;51.976;20.144;2023-02-01T00:20:11;25.40;50.80
36652;DHT22;53334;51.976;20.144;2023-02-01T00:22:45;25.30;50.70
36652;DHT22;53334;51.976;20.144;2023-02-01T00:25:19;25.30;50.80
36652;DHT22;53334;51.976;20.144;2023-02-01T00:27:52;25.30;50.70
36652;DHT22;53334;51.976;20.144;2023-02-01T00:30:25;25.30;50.70
36652;DHT22;53334;51.976;20.144;2023-02-01T00:32:59;25.30;50.80
36652;DHT22;53334;51.976;20.144;2023-02-01T00:35:34;25.30;50.80
36652;DHT22;53334;51.976;20.144;2023-02-01T00:38:09;25.40;51.00
36652;DHT22;53334;51.976;20.144;2023-02-01T00:40:42;25.30;50.90
36652;DHT22;53334;51.976;20.144;2023-02-01T00:43:16;25.40;50.90
36652;DHT22;53334;51.976;20.144;2023-02-01T00:45:49;25.40;50.90
36652;DHT22;53334;51.976;20.144;2023-02-01T00:48:23;25.40;50.90
36652;DHT22;53334;51.976;20.144;2023-02-01T00:50:59;25.40;51.00
36652;DHT22;53334;51.976;20.144;2023-02-01T00:53:34;25.40;50.90
36652;DHT22;53334;51.976;20.144;2023-02-01T00:56:08;25.40;50.90
36652;DHT22;53334;51.976;20.144;2023-02-01T00:58:41;25.40;50.90
36652;DHT22;53334;51.976;20.144;2023-02-01T01:01:19;25.40;51.00
36652;DHT22;53334;51.976;20.144;2023-02-01T01:03:54;25.40;50.90
36652;DHT22;53334;51.976;20.144;2023-02-01T01:06:29;25.40;50.90
36652;DHT22;53334;51.976;20.144;2023-02-01T01:09:06;25.40;51.60
36652;DHT22;53334;51.976;20.144;2023-02-01T01:11:40;25.40;51.10
36652;DHT22;53334;51.976;20.144;2023-02-01T01:14:13;25.40;51.10
36652;DHT22;53334;51.976;20.144;2023-02-01T01:16:47;25.40;51.00
36652;DHT22;53334;51.976;20.144;2023-02-01T01:19:22;25.40;51.10
36652;DHT22;53334;51.976;20.144;2023-02-01T01:21:55;25.40;51.20
36652;DHT22;53334;51.976;20.144;2023-02-01T01:24:30;25.40;51.10
36652;DHT22;53334;51.976;20.144;2023-02-01T01:27:03;25.40;50.90
36652;DHT22;53334;51.976;20.144;2023-02-01T01:29:37;25.40;51.00
36652;DHT22;53334;51.976;20.144;2023-02-01T01:32:10;25.40;51.10
36652;DHT22;53334;51.976;20.144;2023-02-01T01:34:44;25.30;51.00
36652;DHT22;53334;51.976;20.144;2023-02-01T01:37:17;25.30;51.00
36652;DHT22;53334;51.976;20.144;2023-02-01T01:39:52;25.40;51.00
36652;DHT22;53334;51.976;20.144;2023-02-01T01:42:27;25.40;51.10
36652;DHT22;53334;51.976;20.144;2023-02-01T01:45:03;25.30;51.00
36652;DHT22;53334;51.976;20.144;2023-02-01T01:47:41;25.30;50.90
36652;DHT22;53334;51.976;20.144;2023-02-01T01:50:19;25.40;51.10
36652;DHT22;53334;51.976;20.144;2023-02-01T01:52:55;25.30;51.10
36652;DHT22;53334;51.976;20.144;2023-02-01T01:55:35;25.30;51.10
36652;DHT22;53334;51.976;20.144;2023-02-01T01:58:13;25.30;50.80
36652;DHT22;53334;51.976;20.144;2023-02-01T02:00:48;25.30;50.60
36652;DHT22;53334;51.976;20.144;2023-02-01T02:03:25;25.30;50.30
36652;DHT22;53334;51.976;20.144;2023-02-01T02:06:02;25.30;50.30
36652;DHT22;53334;51.976;20.144;2023-02-01T02:08:36;25.30;50.20
36652;DHT22;53334;51.976;20.144;2023-02-01T02:11:16;25.30;50.00
36652;DHT22;53334;51.976;20.144;2023-02-01T02:13:52;25.20;50.00
36652;DHT22;53334;51.976;20.144;2023-02-01T02:16:47;25.20;50.20
36652;DHT22;53334;51.976;20.144;2023-02-01T02:20:02;25.20;50.60
36652;DHT22;53334;51.976;20.144;2023-02-01T02:22:52;25.20;50.80
36652;DHT22;53334;51.976;20.144;2023-02-01T02:25:46;25.20;51.00
36652;DHT22;53334;51.976;20.144;2023-02-01T02:31:52;25.20;51.20
36652;DHT22;53334;51.976;20.144;2023-02-01T02:34:33;25.20;51.30
36652;DHT22;53334;51.976;20.144;2023-02-01T02:37:16;25.20;51.50
36652;DHT22;53334;51.976;20.144;2023-02-01T02:39:58;25.20;51.50
36652;DHT22;53334;51.976;20.144;2023-02-01T02:42:42;25.20;51.60
36652;DHT22;53334;51.976;20.144;2023-02-01T02:45:40;25.20;51.50
36652;DHT22;53334;51.976;20.144;2023-02-01T02:48:37;25.20;51.60
36652;DHT22;53334;51.976;20.144;2023-02-01T02:51:22;25.20;51.60
36652;DHT22;53334;51.976;20.144;2023-02-01T02:54:17;25.20;51.60
36652;DHT22;53334;51.976;20.144;2023-02-01T02:57:12;25.20;51.50
36652;DHT22;53334;51.976;20.144;2023-02-01T03:00:06;25.10;51.40
36652;DHT22;53334;51.976;20.144;2023-02-01T03:02:58;25.20;51.40
36652;DHT22;53334;51.976;20.144;2023-02-01T03:05:50;25.10;51.30
36652;DHT22;53334;51.976;20.144;2023-02-01T03:08:27;25.10;51.20
36652;DHT22;53334;51.976;20.144;2023-02-01T03:11:04;25.10;51.20
36652;DHT22;53334;51.976;20.144;2023-02-01T03:13:44;25.20;51.90
36652;DHT22;53334;51.976;20.144;2023-02-01T03:16:22;25.10;51.20
36652;DHT22;53334;51.976;20.144;2023-02-01T03:19:01;25.10;51.20
36652;DHT22;53334;51.976;20.144;2023-02-01T03:21:39;25.10;51.20
36652;DHT22;53334;51.976;20.144;2023-02-01T03:24:16;25.10;51.20
36652;DHT22;53334;51.976;20.144;2023-02-01T03:26:54;25.10;51.20
36652;DHT22;53334;51.976;20.144;2023-02-01T03:29:32;25.10;51.20
36652;DHT22;53334;51.976;20.144;2023-02-01T03:32:07;25.10;51.20
36652;DHT22;53334;51.976;20.144;2023-02-01T03:34:42;25.10;51.20
36652;DHT22;53334;51.976;20.144;2023-02-01T03:37:22;25.10;51.20
36652;DHT22;53334;51.976;20.144;2023-02-01T03:40:00;25.10;51.20
36652;DHT22;53334;51.976;20.144;2023-02-01T03:42:40;25.10;51.10
36652;DHT22;53334;51.976;20.144;2023-02-01T03:45:20;25.10;51.10
36652;DHT22;53334;51.976;20.144;2023-02-01T03:47:57;25.10;51.10
36652;DHT22;53334;51.976;20.144;2023-02-01T03:50:33;25.10;51.10
36652;DHT22;53334;51.976;20.144;2023-02-01T03:53:14;25.10;51.00
36652;DHT22;53334;51.976;20.144;2023-02-01T03:55:52;25.10;51.00
36652;DHT22;53334;51.976;20.144;2023-02-01T03:58:26;25.10;51.00
36652;DHT22;53334;51.976;20.144;2023-02-01T04:01:00;25.10;51.00
36652;DHT22;53334;51.976;20.144;2023-02-01T04:03:36;25.10;51.00
36652;DHT22;53334;51.976;20.144;2023-02-01T04:06:10;25.10;51.00
36652;DHT22;53334;51.976;20.144;2023-02-01T04:08:43;25.00;51.00
36652;DHT22;53334;51.976;20.144;2023-02-01T04:11:18;25.10;51.00
36652;DHT22;53334;51.976;20.144;2023-02-01T04:13:51;25.10;51.00
36652;DHT22;53334;51.976;20.144;2023-02-01T04:16:24;25.10;51.00
36652;DHT22;53334;51.976;20.144;2023-02-01T04:18:58;25.10;51.00
36652;DHT22;53334;51.976;20.144;2023-02-01T04:21:31;25.00;50.80
36652;DHT22;53334;51.976;20.144;2023-02-01T04:24:05;25.00;50.80
36652;DHT22;53334;51.976;20.144;2023-02-01T04:26:40;25.00;50.80
36652;DHT22;53334;51.976;20.144;2023-02-01T04:29:15;25.00;50.80
36652;DHT22;53334;51.976;20.144;2023-02-01T04:31:48;25.00;50.80
36652;DHT22;53334;51.976;20.144;2023-02-01T04:34:22;25.00;50.80
36652;DHT22;53334;51.976;20.144;2023-02-01T04:36:57;25.10;50.80
36652;DHT22;53334;51.976;20.144;2023-02-01T04:39:30;25.10;50.80
36652;DHT22;53334;51.976;20.144;2023-02-01T04:42:05;25.10;50.80
36652;DHT22;53334;51.976;20.144;2023-02-01T04:44:38;25.00;50.70
36652;DHT22;53334;51.976;20.144;2023-02-01T04:47:13;25.00;50.70
36652;DHT22;53334;51.976;20.144;2023-02-01T04:49:47;25.00;50.80
36652;DHT22;53334;51.976;20.144;2023-02-01T04:52:20;25.00;50.80
36652;DHT22;53334;51.976;20.144;2023-02-01T04:54:54;25.00;50.80
36652;DHT22;53334;51.976;20.144;2023-02-01T04:57:31;25.00;50.90
36652;DHT22;53334;51.976;20.144;2023-02-01T05:00:08;25.00;51.00
36652;DHT22;53334;51.976;20.144;2023-02-01T05:02:42;25.10;51.00
36652;DHT22;53334;51.976;20.144;2023-02-01T05:05:15;25.00;51.00
36652;DHT22;53334;51.976;20.144;2023-02-01T05:07:49;25.00;51.00
36652;DHT22;53334;51.976;20.144;2023-02-01T05:10:22;25.00;51.00
36652;DHT22;53334;51.976;20.144;2023-02-01T05:12:57;25.00;51.00
36652;DHT22;53334;51.976;20.144;2023-02-01T05:15:53;25.00;51.00
36652;DHT22;53334;51.976;20.144;2023-02-01T05:18:27;25.00;51.00
36652;DHT22;53334;51.976;20.144;2023-02-01T05:21:00;25.00;51.00
36652;DHT22;53334;51.976;20.144;2023-02-01T05:23:34;25.00;51.10
36652;DHT22;53334;51.976;20.144;2023-02-01T05:26:27;25.00;51.00
36652;DHT22;53334;51.976;20.144;2023-02-01T05:29:02;25.00;51.00
36652;DHT22;53334;51.976;20.144;2023-02-01T05:31:36;25.00;51.00
36652;DHT22;53334;51.976;20.144;2023-02-01T05:34:09;25.00;51.00
36652;DHT22;53334;51.976;20.144;2023-02-01T05:36:43;25.00;50.90
36652;DHT22;53334;51.976;20.144;2023-02-01T05:39:16;25.00;51.10
36652;DHT22;53334;51.976;20.144;2023-02-01T05:41:50;25.00;51.10
36652;DHT22;53334;51.976;20.144;2023-02-01T05:44:24;25.00;51.10
36652;DHT22;53334;51.976;20.144;2023-02-01T05:46:58;25.00;51.10
36652;DHT22;53334;51.976;20.144;2023-02-01T05:49:31;25.00;51.60
36652;DHT22;53334;51.976;20.144;2023-02-01T05:52:05;25.10;51.10
36652;DHT22;53334;51.976;20.144;2023-02-01T05:54:38;25.10;51.20
36652;DHT22;53334;51.976;20.144;2023-02-01T05:57:11;25.10;51.20
36652;DHT22;53334;51.976;20.144;2023-02-01T05:59:46;25.10;51.10
36652;DHT22;53334;51.976;20.144;2023-02-01T06:02:20;25.10;51.60
36652;DHT22;53334;51.976;20.144;2023-02-01T06:04:56;25.10;51.20
36652;DHT22;53334;51.976;20.144;2023-02-01T06:07:29;25.10;51.00
36652;DHT22;53334;51.976;20.144;2023-02-01T06:10:05;25.10;50.80
36652;DHT22;53334;51.976;20.144;2023-02-01T06:12:38;25.10;50.60
36652;DHT22;53334;51.976;20.144;2023-02-01T06:15:13;25.10;50.70
36652;DHT22;53334;51.976;20.144;2023-02-01T06:17:47;25.10;50.60
36652;DHT22;53334;51.976;20.144;2023-02-01T06:20:21;25.10;50.50
36652;DHT22;53334;51.976;20.144;2023-02-01T06:22:55;25.10;50.60
36652;DHT22;53334;51.976;20.144;2023-02-01T06:25:28;25.10;50.60
36652;DHT22;53334;51.976;20.144;2023-02-01T06:28:02;25.10;50.50
36652;DHT22;53334;51.976;20.144;2023-02-01T06:30:39;25.10;50.50
36652;DHT22;53334;51.976;20.144;2023-02-01T06:33:13;25.10;50.50
36652;DHT22;53334;51.976;20.144;2023-02-01T06:35:47;25.10;50.70
36652;DHT22;53334;51.976;20.144;2023-02-01T06:38:21;25.10;50.70
36652;DHT22;53334;51.976;20.144;2023-02-01T06:40:55;25.10;50.70
36652;DHT22;53334;51.976;20.144;2023-02-01T06:43:28;25.10;50.70
36652;DHT22;53334;51.976;20.144;2023-02-01T06:46:05;25.10;50.60
36652;DHT22;53334;51.976;20.144;2023-02-01T06:48:38;25.10;50.60
36652;DHT22;53334;51.976;20.144;2023-02-01T06:51:22;25.10;50.60
36652;DHT22;53334;51.976;20.144;2023-02-01T06:53:56;25.10;50.60
36652;DHT22;53334;51.976;20.144;2023-02-01T06:56:29;25.10;50.60
36652;DHT22;53334;51.976;20.144;2023-02-01T06:59:03;25.20;50.50
36652;DHT22;53334;51.976;20.144;2023-02-01T07:01:39;25.10;50.20
36652;DHT22;53334;51.976;20.144;2023-02-01T07:04:12;25.10;50.10
36652;DHT22;53334;51.976;20.144;2023-02-01T07:06:46;25.10;50.20
36652;DHT22;53334;51.976;20.144;2023-02-01T07:09:19;25.10;50.30
36652;DHT22;53334;51.976;20.144;2023-02-01T07:11:53;25.10;50.50
36652;DHT22;53334;51.976;20.144;2023-02-01T07:14:26;25.10;50.90
36652;DHT22;53334;51.976;20.144;2023-02-01T07:17:01;25.10;51.00
36652;DHT22;53334;51.976;20.144;2023-02-01T07:19:34;25.10;51.40
36652;DHT22;53334;51.976;20.144;2023-02-01T07:22:07;25.10;51.60
36652;DHT22;53334;51.976;20.144;2023-02-01T07:24:41;25.10;51.90
36652;DHT22;53334;51.976;20.144;2023-02-01T07:27:14;25.20;52.10
36652;DHT22;53334;51.976;20.144;2023-02-01T07:29:47;25.10;52.10
36652;DHT22;53334;51.976;20.144;2023-02-01T07:32:22;25.10;52.40
36652;DHT22;53334;51.976;20.144;2023-02-01T07:34:56;25.20;52.80
36652;DHT22;53334;51.976;20.144;2023-02-01T07:37:29;25.20;52.80
36652;DHT22;53334;51.976;20.144;2023-02-01T07:40:03;25.20;52.70
36652;DHT22;53334;51.976;20.144;2023-02-01T07:42:37;25.20;53.20
36652;DHT22;53334;51.976;20.144;2023-02-01T07:45:10;25.20;53.70
36652;DHT22;53334;51.976;20.144;2023-02-01T07:47:54;25.20;53.80
36652;DHT22;53334;51.976;20.144;2023-02-01T07:50:27;25.20;53.30
36652;DHT22;53334;51.976;20.144;2023-02-01T07:53:01;25.20;52.90
36652;DHT22;53334;51.976;20.144;2023-02-01T07:55:37;25.20;52.70
36652;DHT22;53334;51.976;20.144;2023-02-01T07:58:10;25.20;52.30
36652;DHT22;53334;51.976;20.144;2023-02-01T08:00:43;25.20;52.20
36652;DHT22;53334;51.976;20.144;2023-02-01T08:03:36;25.20;52.00
36652;DHT22;53334;51.976;20.144;2023-02-01T08:06:10;25.20;51.90
36652;DHT22;53334;51.976;20.144;2023-02-01T08:08:43;25.20;51.80
36652;DHT22;53334;51.976;20.144;2023-02-01T08:11:19;25.20;51.30
36652;DHT22;53334;51.976;20.144;2023-02-01T08:13:56;25.10;42.80
36652;DHT22;53334;51.976;20.144;2023-02-01T08:16:31;24.90;35.90
36652;DHT22;53334;51.976;20.144;2023-02-01T08:19:07;24.60;32.60
36652;DHT22;53334;51.976;20.144;2023-02-01T08:21:40;24.30;32.50
36652;DHT22;53334;51.976;20.144;2023-02-01T08:24:14;24.20;32.90
36652;DHT22;53334;51.976;20.144;2023-02-01T08:26:47;24.10;34.90
36652;DHT22;53334;51.976;20.144;2023-02-01T08:29:21;24.00;36.40
36652;DHT22;53334;51.976;20.144;2023-02-01T08:31:54;24.10;35.60
36652;DHT22;53334;51.976;20.144;2023-02-01T08:34:30;24.10;36.40
36652;DHT22;53334;51.976;20.144;2023-02-01T08:37:06;24.20;37.40
36652;DHT22;53334;51.976;20.144;2023-02-01T08:39:40;24.20;37.50
36652;DHT22;53334;51.976;20.144;2023-02-01T08:42:18;24.20;37.80
36652;DHT22;53334;51.976;20.144;2023-02-01T08:45:10;24.20;38.40
36652;DHT22;53334;51.976;20.144;2023-02-01T08:47:44;24.30;38.40
36652;DHT22;53334;51.976;20.144;2023-02-01T08:50:20;24.30;38.40
36652;DHT22;53334;51.976;20.144;2023-02-01T08:52:55;24.40;38.70
36652;DHT22;53334;51.976;20.144;2023-02-01T08:55:28;24.40;39.00
36652;DHT22;53334;51.976;20.144;2023-02-01T08:58:01;24.40;39.60
36652;DHT22;53334;51.976;20.144;2023-02-01T09:00:35;24.40;39.40
36652;DHT22;53334;51.976;20.144;2023-02-01T09:03:09;24.50;39.70
36652;DHT22;53334;51.976;20.144;2023-02-01T09:05:45;24.50;40.00
36652;DHT22;53334;51.976;20.144;2023-02-01T09:08:21;24.50;40.20
36652;DHT22;53334;51.976;20.144;2023-02-01T09:10:58;24.60;40.40
36652;DHT22;53334;51.976;20.144;2023-02-01T09:13:34;24.60;40.80
36652;DHT22;53334;51.976;20.144;2023-02-01T09:16:08;24.60;41.20
36652;DHT22;53334;51.976;20.144;2023-02-01T09:18:41;24.70;41.70
36652;DHT22;53334;51.976;20.144;2023-02-01T09:21:34;24.70;41.90
36652;DHT22;53334;51.976;20.144;2023-02-01T09:24:10;24.70;42.00
36652;DHT22;53334;51.976;20.144;2023-02-01T09:26:43;24.70;41.70
36652;DHT22;53334;51.976;20.144;2023-02-01T09:29:17;24.80;41.70
36652;DHT22;53334;51.976;20.144;2023-02-01T09:31:50;24.70;41.70
36652;DHT22;53334;51.976;20.144;2023-02-01T09:34:34;24.70;41.80
36652;DHT22;53334;51.976;20.144;2023-02-01T09:37:09;24.70;41.90
36652;DHT22;53334;51.976;20.144;2023-02-01T09:39:43;24.80;42.10
36652;DHT22;53334;51.976;20.144;2023-02-01T09:42:28;24.80;42.50
36652;DHT22;53334;51.976;20.144;2023-02-01T09:45:13;24.80;43.00
36652;DHT22;53334;51.976;20.144;2023-02-01T09:47:54;24.80;44.00
36652;DHT22;53334;51.976;20.144;2023-02-01T09:50:33;24.80;44.50
36652;DHT22;53334;51.976;20.144;2023-02-01T09:53:15;24.90;45.10
36652;DHT22;53334;51.976;20.144;2023-02-01T09:55:52;24.90;46.00
36652;DHT22;53334;51.976;20.144;2023-02-01T09:58:30;24.90;45.50
36652;DHT22;53334;51.976;20.144;2023-02-01T10:01:14;24.90;45.80
36652;DHT22;53334;51.976;20.144;2023-02-01T10:03:48;24.90;45.80
36652;DHT22;53334;51.976;20.144;2023-02-01T10:06:32;24.90;45.60
36652;DHT22;53334;51.976;20.144;2023-02-01T10:09:42;24.90;45.40
36652;DHT22;53334;51.976;20.144;2023-02-01T10:15:26;24.90;45.40
36652;DHT22;53334;51.976;20.144;2023-02-01T10:18:21;24.90;45.40
36652;DHT22;53334;51.976;20.144;2023-02-01T10:20:57;24.90;45.30
36652;DHT22;53334;51.976;20.144;2023-02-01T10:23:45;25.00;45.30
36652;DHT22;53334;51.976;20.144;2023-02-01T10:26:26;24.90;44.90
36652;DHT22;53334;51.976;20.144;2023-02-01T10:29:02;24.90;44.80
36652;DHT22;53334;51.976;20.144;2023-02-01T10:31:37;25.00;44.70
36652;DHT22;53334;51.976;20.144;2023-02-01T10:34:17;24.90;44.60
36652;DHT22;53334;51.976;20.144;2023-02-01T10:36:54;25.00;44.60
36652;DHT22;53334;51.976;20.144;2023-02-01T10:39:28;25.00;44.40
36652;DHT22;53334;51.976;20.144;2023-02-01T10:42:03;24.90;44.30
36652;DHT22;53334;51.976;20.144;2023-02-01T10:44:42;25.00;44.40
36652;DHT22;53334;51.976;20.144;2023-02-01T10:47:17;24.90;44.50
36652;DHT22;53334;51.976;20.144;2023-02-01T10:49:56;25.00;44.40
36652;DHT22;53334;51.976;20.144;2023-02-01T10:52:38;24.90;44.40
36652;DHT22;53334;51.976;20.144;2023-02-01T10:55:32;24.90;44.60
36652;DHT22;53334;51.976;20.144;2023-02-01T10:58:14;25.00;44.60
36652;DHT22;53334;51.976;20.144;2023-02-01T11:00:51;25.00;44.60
36652;DHT22;53334;51.976;20.144;2023-02-01T11:03:33;25.00;44.70
36652;DHT22;53334;51.976;20.144;2023-02-01T11:06:24;25.00;44.70
36652;DHT22;53334;51.976;20.144;2023-02-01T11:09:01;25.00;44.60
36652;DHT22;53334;51.976;20.144;2023-02-01T11:11:55;25.00;44.70
36652;DHT22;53334;51.976;20.144;2023-02-01T11:14:39;25.00;44.60
36652;DHT22;53334;51.976;20.144;2023-02-01T11:17:23;25.00;44.60
36652;DHT22;53334;51.976;20.144;2023-02-01T11:19:59;25.00;44.60
36652;DHT22;53334;51.976;20.144;2023-02-01T11:22:33;25.00;44.60
36652;DHT22;53334;51.976;20.144;2023-02-01T11:25:09;25.00;44.60
36652;DHT22;53334;51.976;20.144;2023-02-01T11:27:43;25.00;44.60
36652;DHT22;53334;51.976;20.144;2023-02-01T11:30:32;25.10;44.60
36652;DHT22;53334;51.976;20.144;2023-02-01T11:33:07;25.00;44.50
36652;DHT22;53334;51.976;20.144;2023-02-01T11:35:43;25.00;44.50
36652;DHT22;53334;51.976;20.144;2023-02-01T11:38:22;25.00;44.50
36652;DHT22;53334;51.976;20.144;2023-02-01T11:40:57;25.00;44.40
36652;DHT22;53334;51.976;20.144;2023-02-01T11:43:52;25.10;44.50
36652;DHT22;53334;51.976;20.144;2023-02-01T11:46:30;25.10;44.80
36652;DHT22;53334;51.976;20.144;2023-02-01T11:49:18;25.10;44.60
36652;DHT22;53334;51.976;20.144;2023-02-01T11:52:06;25.10;44.80
36652;DHT22;53334;51.976;20.144;2023-02-01T11:54:58;25.10;44.90
36652;DHT22;53334;51.976;20.144;2023-02-01T11:57:43;25.10;44.70
36652;DHT22;53334;51.976;20.144;2023-02-01T12:00:40;25.10;44.50
36652;DHT22;53334;51.976;20.144;2023-02-01T12:06:29;25.10;44.80
36652;DHT22;53334;51.976;20.144;2023-02-01T12:09:18;25.10;45.60
36652;DHT22;53334;51.976;20.144;2023-02-01T12:12:00;25.10;45.70
36652;DHT22;53334;51.976;20.144;2023-02-01T12:17:53;25.10;46.30
36652;DHT22;53334;51.976;20.144;2023-02-01T12:20:47;25.10;46.40
36652;DHT22;53334;51.976;20.144;2023-02-01T12:23:38;25.10;45.90
36652;DHT22;53334;51.976;20.144;2023-02-01T12:26:38;25.10;45.20
36652;DHT22;53334;51.976;20.144;2023-02-01T12:29:22;25.10;44.80
36652;DHT22;53334;51.976;20.144;2023-02-01T12:32:16;25.10;44.50
36652;DHT22;53334;51.976;20.144;2023-02-01T12:35:15;25.10;44.00
36652;DHT22;53334;51.976;20.144;2023-02-01T12:38:12;25.10;43.60
36652;DHT22;53334;51.976;20.144;2023-02-01T12:40:59;25.10;43.20
36652;DHT22;53334;51.976;20.144;2023-02-01T12:43:39;25.10;42.70
36652;DHT22;53334;51.976;20.144;2023-02-01T12:46:19;25.10;42.40
36652;DHT22;53334;51.976;20.144;2023-02-01T12:48:58;25.10;42.20
36652;DHT22;53334;51.976;20.144;2023-02-01T12:51:36;25.10;42.00
36652;DHT22;53334;51.976;20.144;2023-02-01T12:54:14;25.10;41.80
36652;DHT22;53334;51.976;20.144;2023-02-01T12:56:53;25.10;41.60
36652;DHT22;53334;51.976;20.144;2023-02-01T12:59:33;25.10;41.00
36652;DHT22;53334;51.976;20.144;2023-02-01T13:02:14;25.10;40.90
36652;DHT22;53334;51.976;20.144;2023-02-01T13:04:56;25.10;40.90
36652;DHT22;53334;51.976;20.144;2023-02-01T13:07:38;25.10;40.40
36652;DHT22;53334;51.976;20.144;2023-02-01T13:10:17;25.10;40.00
36652;DHT22;53334;51.976;20.144;2023-02-01T13:12:54;25.10;39.40
36652;DHT22;53334;51.976;20.144;2023-02-01T13:15:33;25.10;39.50
36652;DHT22;53334;51.976;20.144;2023-02-01T13:18:16;25.10;39.30
36652;DHT22;53334;51.976;20.144;2023-02-01T13:20:55;25.10;39.20
36652;DHT22;53334;51.976;20.144;2023-02-01T13:23:31;25.10;39.10
36652;DHT22;53334;51.976;20.144;2023-02-01T13:26:08;25.10;39.50
36652;DHT22;53334;51.976;20.144;2023-02-01T13:28:45;25.10;38.30
36652;DHT22;53334;51.976;20.144;2023-02-01T13:31:44;25.00;38.20
36652;DHT22;53334;51.976;20.144;2023-02-01T13:34:53;25.00;38.00
36652;DHT22;53334;51.976;20.144;2023-02-01T13:37:52;25.00;38.80
36652;DHT22;53334;51.976;20.144;2023-02-01T13:40:39;25.00;37.70
36652;DHT22;53334;51.976;20.144;2023-02-01T13:43:18;25.00;37.50
36652;DHT22;53334;51.976;20.144;2023-02-01T13:45:56;25.00;37.20
36652;DHT22;53334;51.976;20.144;2023-02-01T13:48:36;24.90;37.30
36652;DHT22;53334;51.976;20.144;2023-02-01T13:51:13;25.00;37.10
36652;DHT22;53334;51.976;20.144;2023-02-01T13:53:48;24.90;36.70
36652;DHT22;53334;51.976;20.144;2023-02-01T13:56:23;24.90;36.50
36652;DHT22;53334;51.976;20.144;2023-02-01T14:08:46;24.80;38.40
36652;DHT22;53334;51.976;20.144;2023-02-01T14:11:42;24.90;38.20
36652;DHT22;53334;51.976;20.144;2023-02-01T14:14:45;24.90;37.90
36652;DHT22;53334;51.976;20.144;2023-02-01T14:17:32;24.90;38.50
36652;DHT22;53334;51.976;20.144;2023-02-01T14:23:30;24.90;38.70
36652;DHT22;53334;51.976;20.144;2023-02-01T14:26:12;24.80;38.20
36652;DHT22;53334;51.976;20.144;2023-02-01T14:28:52;24.80;38.30
36652;DHT22;53334;51.976;20.144;2023-02-01T14:31:52;24.80;38.70
36652;DHT22;53334;51.976;20.144;2023-02-01T14:34:31;24.80;39.40
36652;DHT22;53334;51.976;20.144;2023-02-01T14:37:09;24.80;39.20
36652;DHT22;53334;51.976;20.144;2023-02-01T14:39:56;24.80;39.50
36652;DHT22;53334;51.976;20.144;2023-02-01T14:42:35;24.90;40.40
36652;DHT22;53334;51.976;20.144;2023-02-01T14:45:47;24.90;40.70
36652;DHT22;53334;51.976;20.144;2023-02-01T14:48:46;24.90;41.60
36652;DHT22;53334;51.976;20.144;2023-02-01T14:51:21;24.90;42.40
36652;DHT22;53334;51.976;20.144;2023-02-01T14:53:54;25.00;42.60
36652;DHT22;53334;51.976;20.144;2023-02-01T14:56:28;24.90;43.10
36652;DHT22;53334;51.976;20.144;2023-02-01T14:59:08;24.90;43.50
36652;DHT22;53334;51.976;20.144;2023-02-01T15:01:49;25.00;44.30
36652;DHT22;53334;51.976;20.144;2023-02-01T15:04:26;25.00;44.50
36652;DHT22;53334;51.976;20.144;2023-02-01T15:07:07;25.00;44.40
36652;DHT22;53334;51.976;20.144;2023-02-01T15:09:44;25.00;44.30
36652;DHT22;53334;51.976;20.144;2023-02-01T15:12:23;25.00;44.30
36652;DHT22;53334;51.976;20.144;2023-02-01T15:15:14;25.00;44.50
36652;DHT22;53334;51.976;20.144;2023-02-01T15:17:53;25.00;44.70
36652;DHT22;53334;51.976;20.144;2023-02-01T15:20:29;25.00;44.80
36652;DHT22;53334;51.976;20.144;2023-02-01T15:23:06;25.00;45.60
36652;DHT22;53334;51.976;20.144;2023-02-01T15:25:48;25.00;45.10
36652;DHT22;53334;51.976;20.144;2023-02-01T15:28:24;25.00;45.20
36652;DHT22;53334;51.976;20.144;2023-02-01T15:31:01;25.00;45.40
36652;DHT22;53334;51.976;20.144;2023-02-01T15:33:35;24.90;45.60
36652;DHT22;53334;51.976;20.144;2023-02-01T15:36:16;25.00;45.80
36652;DHT22;53334;51.976;20.144;2023-02-01T15:39:21;24.90;46.20
36652;DHT22;53334;51.976;20.144;2023-02-01T15:41:59;25.00;46.40
36652;DHT22;53334;51.976;20.144;2023-02-01T15:44:38;25.00;46.50
36652;DHT22;53334;51.976;20.144;2023-02-01T15:47:15;25.00;46.70
36652;DHT22;53334;51.976;20.144;2023-02-01T15:49:51;25.00;47.20
36652;DHT22;53334;51.976;20.144;2023-02-01T15:52:35;25.00;47.60
36652;DHT22;53334;51.976;20.144;2023-02-01T15:55:20;25.00;47.80
36652;DHT22;53334;51.976;20.144;2023-02-01T15:57:56;25.00;47.50
36652;DHT22;53334;51.976;20.144;2023-02-01T16:00:31;25.00;47.10
36652;DHT22;53334;51.976;20.144;2023-02-01T16:03:25;25.00;46.90
36652;DHT22;53334;51.976;20.144;2023-02-01T16:06:00;25.00;46.90
36652;DHT22;53334;51.976;20.144;2023-02-01T16:08:34;25.00;46.90
36652;DHT22;53334;51.976;20.144;2023-02-01T16:11:23;25.00;47.10
36652;DHT22;53334;51.976;20.144;2023-02-01T16:13:57;25.10;47.40
36652;DHT22;53334;51.976;20.144;2023-02-01T16:16:30;25.00;47.60
36652;DHT22;53334;51.976;20.144;2023-02-01T16:19:04;25.00;47.90
36652;DHT22;53334;51.976;20.144;2023-02-01T16:21:37;25.10;48.00
36652;DHT22;53334;51.976;20.144;2023-02-01T16:24:10;25.10;48.10
36652;DHT22;53334;51.976;20.144;2023-02-01T16:26:45;25.10;48.20
36652;DHT22;53334;51.976;20.144;2023-02-01T16:29:18;25.10;48.40
36652;DHT22;53334;51.976;20.144;2023-02-01T16:31:53;25.10;48.80
36652;DHT22;53334;51.976;20.144;2023-02-01T16:34:27;25.20;49.20
36652;DHT22;53334;51.976;20.144;2023-02-01T16:37:00;25.20;49.30
36652;DHT22;53334;51.976;20.144;2023-02-01T16:39:34;25.20;49.50
36652;DHT22;53334;51.976;20.144;2023-02-01T16:42:13;25.20;49.70
36652;DHT22;53334;51.976;20.144;2023-02-01T16:44:46;25.20;50.00
36652;DHT22;53334;51.976;20.144;2023-02-01T16:47:21;25.20;49.90
36652;DHT22;53334;51.976;20.144;2023-02-01T16:49:55;25.20;50.10
36652;DHT22;53334;51.976;20.144;2023-02-01T16:52:28;25.20;50.20